Time;durP1;ratioP1;P1;durP2;ratioP2;P2;SDS_P1;SDS_P2;PMS_P1;PMS_P2;Temp;Humidity;BMP_temperature;BMP_pressure;BME280_temperature;BME280_humidity;BME280_pressure;Samples;Min_cycle;Max_cycle;Signal;HPM_P1;HPM_P2
2022/12/21 00:01:28;;;;;;;34.47;15.50;;;;;;;;;;4992076;28;20034;-67
2022/12/21 00:03:56;;;;;;;32.42;15.55;;;;;;;;;;4991987;28;20105;-68
2022/12/21 00:06:24;;;;;;;37.08;14.98;;;;;;;;;;4992017;28;20034;-67
2022/12/21 00:08:52;;;;;;;32.05;16.65;;;;;;;;;;4991307;28;20030;-64
2022/12/21 00:11:18;;;;;;;36.80;16.13;;;;;;;;;;4991699;28;20083;-65
2022/12/21 00:13:44;;;;;;;36.45;14.95;;;;;;;;;;4991965;28;20022;-67
2022/12/21 00:16:14;;;;;;;29.38;15.48;;;;;;;;;;4991953;28;20172;-65
2022/12/21 00:18:40;;;;;;;;;;;;;;;;;;4994651;28;20022;-70
2022/12/21 00:21:10;;;;;;;27.48;15.13;;;;;;;;;;5003426;28;20008;-66
2022/12/21 00:23:35;;;;;;;29.42;11.95;;;;;;;;;;4990713;28;20409;-68
2022/12/21 00:26:03;;;;;;;28.75;14.10;;;;;;;;;;4993599;28;20030;-66
2022/12/21 00:28:28;;;;;;;30.42;15.02;;;;;;;;;;4991727;28;20026;-69
2022/12/21 00:30:54;;;;;;;31.13;15.32;;;;;;;;;;4991583;28;20025;-68
2022/12/21 00:33:20;;;;;;;32.47;14.60;;;;;;;;;;4991422;28;20034;-68
2022/12/21 00:35:47;;;;;;;32.60;15.27;;;;;;;;;;4992216;28;20026;-66
2022/12/21 00:38:13;;;;;;;32.50;15.23;;;;;;;;;;5005109;28;20476;-66
2022/12/21 00:40:39;;;;;;;30.60;14.52;;;;;;;;;;5008813;28;20043;-67
2022/12/21 00:43:04;;;;;;;25.48;12.82;;;;;;;;;;5009072;28;20035;-68
2022/12/21 00:45:29;;;;;;;30.65;14.98;;;;;;;;;;5009594;28;20025;-67
2022/12/21 00:47:55;;;;;;;29.48;15.07;;;;;;;;;;5009469;28;20037;-68
2022/12/21 00:50:20;;;;;;;36.00;16.08;;;;;;;;;;5009616;28;20538;-67
2022/12/21 00:52:46;;;;;;;30.52;15.93;;;;;;;;;;5007983;28;20018;-69
2022/12/21 00:55:11;;;;;;;32.83;15.05;;;;;;;;;;5009473;28;20034;-69
2022/12/21 00:57:36;;;;;;;35.00;16.35;;;;;;;;;;5008239;28;20377;-69
2022/12/21 01:00:03;;;;;;;29.98;14.63;;;;;;;;;;5009122;28;20022;-67
2022/12/21 01:02:29;;;;;;;32.30;16.33;;;;;;;;;;5009338;28;20022;-65
2022/12/21 01:04:54;;;;;;;32.90;15.25;;;;;;;;;;5007799;28;20105;-66
2022/12/21 01:07:20;;;;;;;32.65;16.27;;;;;;;;;;5009570;28;20065;-65
2022/12/21 01:09:45;;;;;;;27.63;14.40;;;;;;;;;;5012075;28;20361;-66
2022/12/21 01:12:10;;;;;;;28.88;14.48;;;;;;;;;;4995680;28;20085;-65
2022/12/21 01:14:36;;;;;;;33.05;15.55;;;;;;;;;;4991359;28;20401;-64
2022/12/21 01:17:01;;;;;;;32.55;14.75;;;;;;;;;;4991711;28;20478;-65
2022/12/21 01:19:27;;;;;;;35.08;15.50;;;;;;;;;;4992563;28;20473;-64
2022/12/21 01:21:52;;;;;;;30.65;14.65;;;;;;;;;;4995407;28;20030;-67
2022/12/21 01:24:18;;;;;;;32.88;14.40;;;;;;;;;;5000989;28;20084;-67
2022/12/21 01:26:43;;;;;;;28.42;14.32;;;;;;;;;;5009383;28;20030;-65
2022/12/21 01:29:12;;;;;;;28.45;14.45;;;;;;;;;;4995201;28;20548;-65
2022/12/21 01:31:37;;;;;;;34.97;15.68;;;;;;;;;;4995310;28;20500;-66
2022/12/21 01:34:03;;;;;;;32.83;14.73;;;;;;;;;;4995237;28;20109;-65
2022/12/21 01:36:28;;;;;;;31.98;15.35;;;;;;;;;;4995136;28;20026;-65
2022/12/21 01:38:54;;;;;;;33.30;15.57;;;;;;;;;;4995551;28;20010;-66
2022/12/21 01:41:25;;;;;;;27.70;14.00;;;;;;;;;;4995055;28;20489;-66
2022/12/21 01:43:53;;;;;;;30.05;14.20;;;;;;;;;;4995040;28;20022;-64
2022/12/21 01:46:27;;;;;;;31.55;15.50;;;;;;;;;;4995300;28;20034;-66
2022/12/21 01:49:01;;;;;;;30.10;13.80;;;;;;;;;;4996033;28;20041;-66
2022/12/21 01:51:26;;;;;;;31.90;14.40;;;;;;;;;;4995900;28;20026;-66
2022/12/21 01:53:57;;;;;;;27.52;12.45;;;;;;;;;;4995989;28;20444;-66
2022/12/21 01:56:26;;;;;;;;;;;;;;;;;;4995296;28;20022;-66
2022/12/21 01:58:52;;;;;;;28.60;14.43;;;;;;;;;;4994851;28;19920;-66
2022/12/21 02:01:17;;;;;;;30.45;14.95;;;;;;;;;;4994802;28;20018;-68
2022/12/21 02:03:49;;;;;;;29.85;15.57;;;;;;;;;;4994927;28;20050;-68
2022/12/21 02:06:45;;;;;;;28.98;15.05;;;;;;;;;;4995612;28;20429;-66
2022/12/21 02:09:14;;;;;;;30.05;13.93;;;;;;;;;;4995664;28;20081;-69
2022/12/21 02:11:40;;;;;;;29.75;13.98;;;;;;;;;;4995681;28;20041;-68
2022/12/21 02:14:15;;;;;;;26.20;14.30;;;;;;;;;;4995235;28;20030;-69
2022/12/21 02:16:40;;;;;;;33.90;14.90;;;;;;;;;;4995580;28;20034;-66
2022/12/21 02:19:24;;;;;;;27.73;14.15;;;;;;;;;;4995592;28;20076;-67
2022/12/21 02:22:08;;;;;;;30.95;15.18;;;;;;;;;;4995564;28;20022;-67
2022/12/21 02:25:00;;;;;;;22.63;12.52;;;;;;;;;;4994908;28;20105;-67
2022/12/21 02:27:49;;;;;;;29.05;13.73;;;;;;;;;;5004385;28;20035;-69
2022/12/21 02:30:18;;;;;;;29.77;14.02;;;;;;;;;;4994045;28;20081;-68
2022/12/21 02:32:52;;;;;;;28.23;14.05;;;;;;;;;;4977703;28;20054;-68
2022/12/21 02:36:05;;;;;;;33.65;15.65;;;;;;;;;;4995290;28;20049;-66
2022/12/21 02:39:07;;;;;;;30.80;14.05;;;;;;;;;;4995264;28;20029;-68
2022/12/21 02:41:48;;;;;;;30.33;14.10;;;;;;;;;;4994959;28;20084;-66
2022/12/21 02:44:24;;;;;;;24.23;12.38;;;;;;;;;;4995156;28;20409;-68
2022/12/21 02:47:08;;;;;;;30.30;13.18;;;;;;;;;;4993957;28;20057;-67
2022/12/21 02:50:02;;;;;;;29.80;14.02;;;;;;;;;;4994923;28;20026;-67
2022/12/21 02:52:34;;;;;;;36.22;14.60;;;;;;;;;;4993474;28;20044;-66
2022/12/21 02:55:01;;;;;;;30.42;14.35;;;;;;;;;;4994889;28;20030;-66
2022/12/21 02:57:44;;;;;;;34.85;12.07;;;;;;;;;;4994679;28;20026;-67
2022/12/21 03:00:18;;;;;;;33.42;14.57;;;;;;;;;;4994719;28;20026;-68
2022/12/21 03:06:08;;;;;;;24.58;11.77;;;;;;;;;;4994724;28;20140;-66
2022/12/21 03:08:59;;;;;;;27.10;13.52;;;;;;;;;;4994641;28;20447;-66
2022/12/21 03:11:34;;;;;;;31.42;14.30;;;;;;;;;;4994499;28;20030;-66
2022/12/21 03:14:08;;;;;;;23.85;11.68;;;;;;;;;;4993424;28;20026;-68
2022/12/21 03:16:52;;;;;;;31.35;14.73;;;;;;;;;;4993396;28;20026;-66
2022/12/21 03:19:37;;;;;;;29.98;14.57;;;;;;;;;;4993434;28;20035;-66
2022/12/21 03:22:13;;;;;;;31.50;14.90;;;;;;;;;;4993687;28;20022;-66
2022/12/21 03:24:51;;;;;;;34.83;14.65;;;;;;;;;;4994861;28;20069;-65
2022/12/21 03:27:20;;;;;;;35.35;15.95;;;;;;;;;;5013648;28;20041;-65
2022/12/21 03:29:52;;;;;;;31.48;15.18;;;;;;;;;;5013889;28;20033;-66
2022/12/21 03:32:40;;;;;;;30.83;13.75;;;;;;;;;;5013780;28;20068;-65
2022/12/21 03:35:14;;;;;;;33.28;14.85;;;;;;;;;;5013798;28;20030;-66
2022/12/21 03:37:41;;;;;;;31.65;14.52;;;;;;;;;;5008117;28;20033;-65
2022/12/21 03:40:19;;;;;;;33.47;15.80;;;;;;;;;;4993594;28;20026;-65
2022/12/21 03:42:56;;;;;;;27.20;11.82;;;;;;;;;;4993982;28;20081;-66
2022/12/21 03:45:26;;;;;;;27.70;13.07;;;;;;;;;;4993122;28;20036;-65
2022/12/21 03:48:11;;;;;;;33.17;15.20;;;;;;;;;;4992785;28;20038;-65
2022/12/21 03:50:42;;;;;;;32.22;14.55;;;;;;;;;;4992608;28;20052;-68
2022/12/21 03:53:32;;;;;;;32.33;14.23;;;;;;;;;;4992752;28;20037;-65
2022/12/21 03:56:00;;;;;;;;;;;;;;;;;;4994058;28;20052;-66
2022/12/21 03:58:26;;;;;;;29.48;13.63;;;;;;;;;;4993700;28;19913;-67
2022/12/21 04:01:04;;;;;;;29.90;13.27;;;;;;;;;;4993595;28;20084;-65
2022/12/21 04:03:37;;;;;;;31.63;14.73;;;;;;;;;;4993671;28;20355;-65
2022/12/21 04:06:09;;;;;;;31.17;15.35;;;;;;;;;;4993108;28;20070;-65
2022/12/21 04:08:37;;;;;;;34.80;15.98;;;;;;;;;;4992302;28;20037;-65
2022/12/21 04:11:02;;;;;;;32.45;14.98;;;;;;;;;;4992129;28;20030;-67
2022/12/21 04:13:27;;;;;;;35.67;16.17;;;;;;;;;;4992465;28;20038;-66
2022/12/21 04:16:05;;;;;;;36.83;15.60;;;;;;;;;;4992912;28;20536;-65
2022/12/21 04:21:18;;;;;;;39.78;17.35;;;;;;;;;;4993448;28;20502;-67
2022/12/21 04:29:13;;;;;;;36.90;16.30;;;;;;;;;;4952641;29;20537;-66
2022/12/21 04:31:39;;;;;;;36.20;16.40;;;;;;;;;;4936406;29;20039;-67
2022/12/21 04:34:04;;;;;;;32.83;16.40;;;;;;;;;;4952096;29;20036;-66
2022/12/21 04:39:14;;;;;;;29.92;15.15;;;;;;;;;;4952335;29;20155;-65
2022/12/21 04:41:39;;;;;;;34.95;15.70;;;;;;;;;;4952226;29;20122;-65
2022/12/21 04:44:05;;;;;;;35.33;16.52;;;;;;;;;;4951991;29;20071;-67
2022/12/21 04:46:30;;;;;;;30.40;15.30;;;;;;;;;;4966872;28;20138;-68
2022/12/21 04:48:55;;;;;;;34.08;15.98;;;;;;;;;;4955290;28;20113;-66
2022/12/21 04:51:23;;;;;;;29.55;15.38;;;;;;;;;;4962561;28;20047;-68
2022/12/21 04:53:49;;;;;;;35.17;16.40;;;;;;;;;;4963167;28;20027;-68
2022/12/21 04:56:15;;;;;;;34.85;15.68;;;;;;;;;;4977716;28;20113;-67
2022/12/21 04:58:41;;;;;;;32.95;14.70;;;;;;;;;;4977858;28;20519;-66
2022/12/21 05:01:09;;;;;;;31.60;14.50;;;;;;;;;;4977617;28;20117;-68
2022/12/21 05:03:34;;;;;;;34.30;16.55;;;;;;;;;;4988579;28;20039;-68
2022/12/21 05:06:00;;;;;;;38.60;17.75;;;;;;;;;;4999196;28;20035;-67
2022/12/21 05:08:26;;;;;;;37.28;16.35;;;;;;;;;;4999009;28;20034;-65
2022/12/21 05:10:51;;;;;;;37.50;17.35;;;;;;;;;;4999131;28;20409;-65
2022/12/21 05:13:16;;;;;;;40.05;17.42;;;;;;;;;;4999293;28;20057;-65
2022/12/21 05:15:42;;;;;;;36.92;17.00;;;;;;;;;;4999169;28;20376;-66
2022/12/21 05:18:07;;;;;;;34.50;15.95;;;;;;;;;;4999254;28;20030;-65
2022/12/21 05:20:33;;;;;;;37.72;17.15;;;;;;;;;;4998903;28;20118;-65
2022/12/21 05:22:58;;;;;;;34.35;16.08;;;;;;;;;;4998819;28;20131;-64
2022/12/21 05:25:23;;;;;;;32.20;15.50;;;;;;;;;;5002044;28;20065;-66
2022/12/21 05:27:49;;;;;;;36.88;16.45;;;;;;;;;;4997950;28;20068;-66
2022/12/21 05:30:14;;;;;;;37.70;17.02;;;;;;;;;;4997915;28;20026;-66
2022/12/21 05:32:40;;;;;;;39.88;17.65;;;;;;;;;;4997998;28;20487;-66
2022/12/21 05:35:05;;;;;;;47.38;19.30;;;;;;;;;;4998723;28;20030;-66
2022/12/21 05:37:31;;;;;;;37.63;18.20;;;;;;;;;;4998813;28;20079;-66
2022/12/21 05:39:56;;;;;;;40.17;18.77;;;;;;;;;;4998747;28;20022;-65
2022/12/21 05:42:22;;;;;;;38.90;16.73;;;;;;;;;;4998998;28;20410;-64
2022/12/21 05:44:47;;;;;;;39.03;17.88;;;;;;;;;;4998461;28;20025;-66
2022/12/21 05:47:13;;;;;;;40.03;18.20;;;;;;;;;;4998503;28;20037;-68
2022/12/21 05:49:38;;;;;;;38.85;17.25;;;;;;;;;;4998814;28;20030;-68
2022/12/21 05:52:04;;;;;;;38.25;17.98;;;;;;;;;;4998640;28;20032;-67
2022/12/21 05:54:29;;;;;;;37.63;17.95;;;;;;;;;;4998665;28;20034;-65
2022/12/21 05:56:55;;;;;;;42.00;18.23;;;;;;;;;;4997902;28;20394;-67
2022/12/21 05:59:20;;;;;;;43.00;19.98;;;;;;;;;;4997683;28;20026;-66
2022/12/21 06:01:46;;;;;;;40.78;18.23;;;;;;;;;;4997714;28;20068;-65
2022/12/21 06:04:11;;;;;;;42.50;17.85;;;;;;;;;;4998036;28;20466;-67
2022/12/21 06:06:37;;;;;;;45.25;20.48;;;;;;;;;;4996136;28;20030;-67
2022/12/21 06:09:03;;;;;;;42.80;18.55;;;;;;;;;;4995735;28;20113;-66
2022/12/21 06:11:28;;;;;;;39.40;17.73;;;;;;;;;;4995724;28;20109;-65
2022/12/21 06:13:54;;;;;;;38.13;17.38;;;;;;;;;;4995607;28;20026;-66
2022/12/21 06:16:24;;;;;;;41.25;18.23;;;;;;;;;;4995469;28;20031;-64
2022/12/21 06:18:49;;;;;;;39.25;18.45;;;;;;;;;;4995468;28;20026;-67
2022/12/21 06:21:16;;;;;;;40.58;18.90;;;;;;;;;;4994207;28;20027;-65
2022/12/21 06:23:43;;;;;;;36.53;17.88;;;;;;;;;;4994003;28;20038;-67
2022/12/21 06:26:12;;;;;;;40.03;19.05;;;;;;;;;;4996058;28;20046;-67
2022/12/21 06:28:37;;;;;;;39.38;17.85;;;;;;;;;;4994442;28;20042;-67
2022/12/21 06:31:10;;;;;;;41.15;17.98;;;;;;;;;;4995190;28;20072;-65
2022/12/21 06:33:36;;;;;;;40.00;19.15;;;;;;;;;;4995007;28;20030;-66
2022/12/21 06:36:02;;;;;;;41.60;18.77;;;;;;;;;;4994038;28;20074;-66
2022/12/21 06:38:27;;;;;;;34.97;16.30;;;;;;;;;;4994033;28;20057;-66
2022/12/21 06:41:01;;;;;;;40.20;17.90;;;;;;;;;;4994121;28;20033;-66
2022/12/21 06:43:28;;;;;;;42.33;18.15;;;;;;;;;;4994167;28;20825;-67
2022/12/21 06:45:56;;;;;;;37.22;18.45;;;;;;;;;;4994977;28;20414;-67
2022/12/21 06:48:23;;;;;;;35.35;15.75;;;;;;;;;;4994493;28;20033;-66
2022/12/21 06:50:53;;;;;;;34.95;18.00;;;;;;;;;;4994869;28;20030;-67
2022/12/21 06:53:19;;;;;;;42.70;19.13;;;;;;;;;;4994865;28;20371;-65
2022/12/21 06:55:45;;;;;;;44.05;18.67;;;;;;;;;;4993697;28;20030;-66
2022/12/21 06:58:10;;;;;;;39.05;19.08;;;;;;;;;;4993661;28;20525;-67
2022/12/21 07:00:35;;;;;;;38.83;19.63;;;;;;;;;;4993339;28;20085;-65
2022/12/21 07:03:01;;;;;;;41.10;18.55;;;;;;;;;;4993270;28;20121;-66
2022/12/21 07:05:26;;;;;;;42.15;18.80;;;;;;;;;;4994642;28;20023;-67
2022/12/21 07:07:52;;;;;;;39.35;17.40;;;;;;;;;;4994587;28;20034;-66
2022/12/21 07:10:17;;;;;;;42.85;18.65;;;;;;;;;;4994265;28;20022;-65
2022/12/21 07:12:43;;;;;;;42.17;18.60;;;;;;;;;;4994395;28;20089;-65
2022/12/21 07:15:09;;;;;;;40.20;19.27;;;;;;;;;;4994351;28;20030;-65
2022/12/21 07:17:34;;;;;;;42.95;20.45;;;;;;;;;;4993765;28;20025;-65
2022/12/21 07:19:59;;;;;;;50.45;21.33;;;;;;;;;;4994240;28;20026;-68
2022/12/21 07:22:25;;;;;;;41.67;19.30;;;;;;;;;;4994251;28;20049;-65
2022/12/21 07:24:50;;;;;;;40.42;18.95;;;;;;;;;;4994100;28;20042;-65
2022/12/21 07:27:16;;;;;;;48.47;20.83;;;;;;;;;;4992937;28;20114;-65
2022/12/21 07:29:41;;;;;;;33.78;16.63;;;;;;;;;;4991849;28;20133;-68
2022/12/21 07:32:06;;;;;;;41.03;19.27;;;;;;;;;;4992817;28;20112;-65
2022/12/21 07:34:32;;;;;;;46.60;21.13;;;;;;;;;;4993634;28;20115;-65
2022/12/21 07:36:57;;;;;;;46.70;20.80;;;;;;;;;;4993837;28;20473;-68
2022/12/21 07:39:23;;;;;;;52.50;20.80;;;;;;;;;;4993934;28;20362;-66
2022/12/21 07:41:48;;;;;;;45.85;20.67;;;;;;;;;;4993667;28;20441;-65
2022/12/21 07:44:14;;;;;;;42.08;19.92;;;;;;;;;;4993734;28;20042;-66
2022/12/21 07:46:39;;;;;;;43.58;20.55;;;;;;;;;;4992379;28;20069;-66
2022/12/21 07:49:05;;;;;;;46.70;20.55;;;;;;;;;;4993619;28;20109;-66
2022/12/21 07:51:30;;;;;;;42.25;17.63;;;;;;;;;;4993059;28;20046;-65
2022/12/21 07:53:56;;;;;;;49.78;19.75;;;;;;;;;;4992539;28;20045;-65
2022/12/21 07:56:21;;;;;;;48.20;20.23;;;;;;;;;;4992508;28;20134;-65
2022/12/21 07:58:47;;;;;;;46.20;20.17;;;;;;;;;;4992631;28;20018;-67
2022/12/21 08:01:15;;;;;;;47.78;19.80;;;;;;;;;;4991193;28;20539;-65
2022/12/21 08:03:42;;;;;;;49.38;21.48;;;;;;;;;;4992227;28;20058;-66
2022/12/21 08:06:08;;;;;;;45.80;20.92;;;;;;;;;;4992211;28;20536;-65
2022/12/21 08:08:35;;;;;;;47.90;21.88;;;;;;;;;;4990984;28;20113;-65
2022/12/21 08:11:01;;;;;;;49.03;21.48;;;;;;;;;;4992201;28;20114;-67
2022/12/21 08:13:26;;;;;;;51.83;20.77;;;;;;;;;;4993240;28;20046;-65
2022/12/21 08:16:13;;;;;;;46.22;20.83;;;;;;;;;;4993146;28;20030;-65
2022/12/21 08:18:38;;;;;;;46.55;20.13;;;;;;;;;;4992592;28;20026;-66
2022/12/21 08:21:04;;;;;;;52.90;21.48;;;;;;;;;;4992627;28;20156;-66
2022/12/21 08:23:30;;;;;;;53.88;21.75;;;;;;;;;;4992555;28;20092;-66
2022/12/21 08:26:06;;;;;;;53.50;21.75;;;;;;;;;;4992732;28;20026;-65
2022/12/21 08:28:32;;;;;;;53.42;22.80;;;;;;;;;;4992018;28;20025;-67
2022/12/21 08:31:09;;;;;;;46.53;20.33;;;;;;;;;;4991982;28;20106;-66
2022/12/21 08:33:35;;;;;;;50.20;21.67;;;;;;;;;;4992538;28;20508;-65
2022/12/21 08:36:00;;;;;;;55.97;22.42;;;;;;;;;;4992410;28;20030;-66
2022/12/21 08:38:26;;;;;;;48.97;21.88;;;;;;;;;;4992374;28;20461;-66
2022/12/21 08:40:51;;;;;;;55.88;22.65;;;;;;;;;;4992376;28;20027;-65
2022/12/21 08:43:18;;;;;;;52.15;21.67;;;;;;;;;;4992336;28;20023;-65
2022/12/21 08:45:44;;;;;;;54.38;20.10;;;;;;;;;;4992084;28;20033;-65
2022/12/21 08:48:10;;;;;;;51.20;19.00;;;;;;;;;;4992309;28;20022;-67
2022/12/21 08:50:35;;;;;;;48.42;20.80;;;;;;;;;;4992069;28;20104;-67
2022/12/21 08:53:01;;;;;;;51.17;20.77;;;;;;;;;;4991906;28;20118;-67
2022/12/21 08:55:26;;;;;;;58.00;21.83;;;;;;;;;;4992275;28;20470;-66
2022/12/21 08:57:52;;;;;;;51.60;21.95;;;;;;;;;;4992328;28;20034;-68
2022/12/21 09:00:17;;;;;;;50.38;21.20;;;;;;;;;;4991917;28;20018;-66
2022/12/21 09:02:43;;;;;;;55.28;21.90;;;;;;;;;;4992194;28;20483;-67
2022/12/21 09:05:08;;;;;;;53.38;22.80;;;;;;;;;;4992233;28;20031;-67
2022/12/21 09:07:34;;;;;;;53.42;20.83;;;;;;;;;;4992222;28;20077;-65
2022/12/21 09:10:00;;;;;;;59.38;21.42;;;;;;;;;;4992342;28;20042;-65
2022/12/21 09:12:27;;;;;;;50.67;18.67;;;;;;;;;;4992445;28;20022;-67
2022/12/21 09:14:52;;;;;;;63.58;22.17;;;;;;;;;;4992434;28;20377;-65
2022/12/21 09:17:17;;;;;;;50.67;21.00;;;;;;;;;;4992575;28;20022;-65
2022/12/21 09:19:43;;;;;;;57.33;21.90;;;;;;;;;;4992421;28;20054;-65
2022/12/21 09:22:09;;;;;;;57.42;21.88;;;;;;;;;;4992391;28;20027;-65
2022/12/21 09:24:34;;;;;;;63.03;22.23;;;;;;;;;;4992287;28;20519;-66
2022/12/21 09:26:59;;;;;;;56.95;22.50;;;;;;;;;;5006513;28;20478;-68
2022/12/21 09:29:25;;;;;;;67.82;22.85;;;;;;;;;;4992009;28;20433;-66
2022/12/21 09:31:51;;;;;;;71.22;23.85;;;;;;;;;;4992410;28;20168;-67
2022/12/21 09:34:17;;;;;;;59.60;23.55;;;;;;;;;;4991166;28;20046;-68
2022/12/21 09:36:43;;;;;;;64.18;24.05;;;;;;;;;;4991142;28;20073;-68
2022/12/21 09:39:09;;;;;;;49.53;20.90;;;;;;;;;;5004903;28;20482;-68
2022/12/21 09:41:49;;;;;;;61.38;21.13;;;;;;;;;;4995002;28;20026;-66
2022/12/21 09:44:47;;;;;;;72.90;21.25;;;;;;;;;;4991310;28;20049;-66
2022/12/21 09:47:19;;;;;;;56.50;19.60;;;;;;;;;;4983886;28;20034;-67
2022/12/21 09:49:55;;;;;;;56.63;21.60;;;;;;;;;;4996183;28;20135;-66
2022/12/21 09:52:33;;;;;;;68.82;20.40;;;;;;;;;;4996060;28;20389;-68
2022/12/21 09:55:10;;;;;;;61.05;20.83;;;;;;;;;;4996019;28;20026;-67
2022/12/21 09:57:36;;;;;;;65.25;23.33;;;;;;;;;;4995890;28;20486;-66
2022/12/21 10:00:09;;;;;;;47.38;19.85;;;;;;;;;;4995750;28;20042;-66
2022/12/21 10:02:54;;;;;;;69.00;21.38;;;;;;;;;;4996039;28;20077;-67
2022/12/21 10:05:27;;;;;;;54.70;19.98;;;;;;;;;;4985372;28;20034;-66
2022/12/21 10:08:17;;;;;;;70.82;22.58;;;;;;;;;;4995679;28;20054;-68
2022/12/21 10:10:50;;;;;;;;;;;;;;;;;;4996273;28;20033;-65
2022/12/21 10:13:24;;;;;;;70.00;21.52;;;;;;;;;;4995619;28;19913;-67
2022/12/21 10:16:08;;;;;;;63.28;20.50;;;;;;;;;;4994132;28;20034;-64
2022/12/21 10:19:01;;;;;;;87.40;23.25;;;;;;;;;;4995559;28;20027;-65
2022/12/21 10:21:35;;;;;;;57.97;21.38;;;;;;;;;;4995675;28;20033;-65
2022/12/21 10:24:03;;;;;;;72.70;20.45;;;;;;;;;;4995238;28;20121;-65
2022/12/21 10:26:34;;;;;;;73.18;21.30;;;;;;;;;;5010890;28;20440;-65
2022/12/21 10:29:02;;;;;;;89.90;22.00;;;;;;;;;;5015014;28;20033;-65
2022/12/21 10:31:32;;;;;;;67.80;21.42;;;;;;;;;;5015022;28;20026;-65
2022/12/21 10:33:58;;;;;;;;;;;;;;;;;;5015345;28;20511;-66
2022/12/21 10:36:33;;;;;;;70.18;19.92;;;;;;;;;;5014704;28;19948;-66
2022/12/21 10:38:59;;;;;;;82.75;21.83;;;;;;;;;;5014992;28;20079;-65
2022/12/21 10:41:30;;;;;;;77.95;22.35;;;;;;;;;;5014637;28;20416;-65
2022/12/21 10:43:58;;;;;;;76.63;21.95;;;;;;;;;;5002154;28;20026;-67
2022/12/21 10:46:35;;;;;;;84.13;23.38;;;;;;;;;;4994934;28;20037;-65
2022/12/21 10:49:10;;;;;;;60.78;23.33;;;;;;;;;;4995032;28;20370;-65
2022/12/21 10:51:35;;;;;;;89.60;24.90;;;;;;;;;;4994169;28;20049;-66
2022/12/21 10:54:02;;;;;;;78.57;23.85;;;;;;;;;;4994653;28;20477;-66
2022/12/21 10:56:33;;;;;;;76.07;21.50;;;;;;;;;;4994759;28;20026;-65
2022/12/21 10:59:13;;;;;;;60.85;20.63;;;;;;;;;;4995044;28;20485;-65
2022/12/21 11:01:39;;;;;;;54.93;19.87;;;;;;;;;;4994909;28;20473;-65
2022/12/21 11:04:13;;;;;;;58.08;18.25;;;;;;;;;;4994672;28;20033;-64
2022/12/21 11:06:38;;;;;;;73.15;21.67;;;;;;;;;;4993409;28;20517;-67
2022/12/21 11:09:29;;;;;;;75.20;21.92;;;;;;;;;;4994155;28;20109;-66
2022/12/21 11:11:55;;;;;;;74.35;16.17;;;;;;;;;;4994493;28;20023;-66
2022/12/21 11:14:20;;;;;;;79.78;22.98;;;;;;;;;;4994510;28;20065;-65
2022/12/21 11:16:46;;;;;;;71.55;18.80;;;;;;;;;;4994552;28;20389;-66
2022/12/21 11:19:14;;;;;;;70.95;20.60;;;;;;;;;;4994627;28;20030;-67
2022/12/21 11:21:55;;;;;;;61.05;21.45;;;;;;;;;;4994356;28;20109;-67
2022/12/21 11:24:20;;;;;;;84.90;21.55;;;;;;;;;;4992083;28;20528;-66
2022/12/21 11:26:49;;;;;;;73.28;21.38;;;;;;;;;;5012174;28;20069;-68
2022/12/21 11:29:24;;;;;;;88.53;20.45;;;;;;;;;;5013858;28;20026;-66
2022/12/21 11:31:52;;;;;;;84.18;21.70;;;;;;;;;;5013708;28;20017;-67
2022/12/21 11:35:01;;;;;;;82.82;21.13;;;;;;;;;;5000077;28;20022;-68
2022/12/21 11:37:27;;;;;;;58.60;20.42;;;;;;;;;;4991998;28;20473;-66
2022/12/21 11:39:56;;;;;;;74.57;20.80;;;;;;;;;;4991501;28;20088;-65
2022/12/21 11:42:23;;;;;;;57.60;19.75;;;;;;;;;;4991921;28;20050;-65
2022/12/21 11:45:02;;;;;;;96.75;25.33;;;;;;;;;;4991889;28;20505;-66
2022/12/21 11:47:55;;;;;;;63.72;20.20;;;;;;;;;;4991838;28;20088;-66
2022/12/21 11:50:32;;;;;;;86.35;20.02;;;;;;;;;;4991630;28;20573;-68
2022/12/21 11:53:17;;;;;;;99.68;22.25;;;;;;;;;;4991595;28;20036;-66
2022/12/21 11:55:57;;;;;;;67.90;18.73;;;;;;;;;;4991683;28;20045;-68
2022/12/21 11:58:58;;;;;;;92.80;21.27;;;;;;;;;;4991369;28;20034;-66
2022/12/21 12:01:46;;;;;;;88.95;23.15;;;;;;;;;;4956536;28;20050;-66
2022/12/21 12:04:44;;;;;;;63.28;18.38;;;;;;;;;;4969736;28;20042;-65
2022/12/21 12:07:12;;;;;;;61.70;14.52;;;;;;;;;;4973753;28;20062;-67
2022/12/21 12:09:53;;;;;;;69.53;18.77;;;;;;;;;;4991981;28;20036;-67
2022/12/21 12:12:39;;;;;;;67.43;18.65;;;;;;;;;;4993550;28;20053;-65
2022/12/21 12:15:22;;;;;;;68.07;17.80;;;;;;;;;;4993486;28;20026;-66
2022/12/21 12:18:15;;;;;;;97.35;19.08;;;;;;;;;;4993465;28;20543;-65
2022/12/21 12:20:41;;;;;;;80.47;18.95;;;;;;;;;;4993339;28;20062;-66
2022/12/21 12:23:15;;;;;;;55.97;19.63;;;;;;;;;;4992887;28;20085;-65
2022/12/21 12:26:05;;;;;;;82.22;20.35;;;;;;;;;;5002574;28;20422;-65
2022/12/21 12:28:50;;;;;;;90.63;20.60;;;;;;;;;;5012915;28;20473;-65
2022/12/21 12:31:40;;;;;;;60.22;17.98;;;;;;;;;;5012712;28;20168;-67
2022/12/21 12:34:08;;;;;;;111.50;20.48;;;;;;;;;;5012524;28;20030;-66
2022/12/21 12:37:05;;;;;;;85.30;20.52;;;;;;;;;;5012436;28;20085;-66
2022/12/21 12:39:51;;;;;;;81.35;19.42;;;;;;;;;;5012746;28;20026;-66
2022/12/21 12:42:17;;;;;;;70.25;19.15;;;;;;;;;;5012591;28;20080;-65
2022/12/21 12:45:18;;;;;;;84.45;20.52;;;;;;;;;;5012502;28;20026;-66
2022/12/21 12:47:49;;;;;;;93.43;18.48;;;;;;;;;;4971131;28;20089;-65
2022/12/21 12:50:25;;;;;;;82.05;20.02;;;;;;;;;;4971183;28;20030;-65
2022/12/21 12:53:17;;;;;;;86.22;19.92;;;;;;;;;;4970950;28;20039;-65
2022/12/21 12:56:05;;;;;;;67.43;18.50;;;;;;;;;;4971357;28;20113;-63
2022/12/21 12:58:44;;;;;;;73.90;17.83;;;;;;;;;;4971260;28;20062;-64
2022/12/21 13:01:25;;;;;;;59.47;19.13;;;;;;;;;;4971281;28;20027;-66
2022/12/21 13:03:50;;;;;;;;;;;;;;;;;;4971739;28;20038;-67
2022/12/21 13:06:18;;;;;;;63.40;18.52;;;;;;;;;;4954309;28;19921;-65
2022/12/21 13:08:50;;;;;;;62.45;18.75;;;;;;;;;;4971321;28;20162;-65
2022/12/21 13:11:34;;;;;;;74.82;18.88;;;;;;;;;;4957394;28;20043;-65
2022/12/21 13:14:42;;;;;;;63.88;16.92;;;;;;;;;;4950502;29;20038;-66
2022/12/21 13:17:38;;;;;;;48.70;18.60;;;;;;;;;;4953250;29;20090;-64
2022/12/21 13:20:06;;;;;;;66.43;18.75;;;;;;;;;;4950276;29;20031;-64
2022/12/21 13:22:34;;;;;;;76.43;19.55;;;;;;;;;;4951503;29;20319;-64
2022/12/21 13:25:35;;;;;;;80.35;21.42;;;;;;;;;;4986947;28;20374;-66
2022/12/21 13:28:03;;;;;;;62.35;19.10;;;;;;;;;;4984283;28;20033;-65
2022/12/21 13:30:31;;;;;;;64.65;19.60;;;;;;;;;;4994709;28;20046;-66
2022/12/21 13:32:59;;;;;;;77.97;18.73;;;;;;;;;;4995062;28;20022;-66
2022/12/21 13:36:02;;;;;;;75.05;20.15;;;;;;;;;;4994873;28;20033;-65
2022/12/21 13:38:50;;;;;;;70.63;20.77;;;;;;;;;;4953711;29;20122;-63
2022/12/21 13:41:21;;;;;;;71.90;20.55;;;;;;;;;;4877851;29;20163;-65
2022/12/21 13:44:04;;;;;;;61.83;19.65;;;;;;;;;;4878690;29;20045;-65
2022/12/21 13:46:32;;;;;;;62.22;19.83;;;;;;;;;;4879027;29;20052;-66
2022/12/21 13:49:06;;;;;;;60.90;21.58;;;;;;;;;;4879261;29;20119;-67
2022/12/21 13:51:52;;;;;;;63.28;21.40;;;;;;;;;;4879592;29;20099;-65
2022/12/21 13:55:05;;;;;;;61.75;20.73;;;;;;;;;;4879066;29;20051;-69
2022/12/21 13:57:46;;;;;;;63.13;17.42;;;;;;;;;;4859441;29;20077;-69
2022/12/21 14:00:25;;;;;;;49.97;16.90;;;;;;;;;;4849079;29;20041;-68
2022/12/21 14:02:54;;;;;;;48.50;16.73;;;;;;;;;;4842876;29;20097;-68
2022/12/21 14:05:23;;;;;;;44.95;14.05;;;;;;;;;;4860471;29;20046;-68
2022/12/21 14:08:38;;;;;;;48.47;14.88;;;;;;;;;;4860609;29;20042;-67
2022/12/21 14:11:22;;;;;;;40.53;14.18;;;;;;;;;;4860402;29;20116;-65
2022/12/21 14:14:11;;;;;;;43.05;15.32;;;;;;;;;;4884125;29;20036;-64
2022/12/21 14:16:37;;;;;;;43.47;15.60;;;;;;;;;;4910001;29;20349;-64
2022/12/21 14:19:14;;;;;;;39.83;14.75;;;;;;;;;;4943500;28;20039;-64
2022/12/21 14:21:44;;;;;;;40.50;14.90;;;;;;;;;;4954684;28;20042;-64
2022/12/21 14:24:29;;;;;;;42.40;16.02;;;;;;;;;;4954324;28;20134;-64
2022/12/21 14:27:06;;;;;;;36.55;13.82;;;;;;;;;;4972243;28;20055;-65
2022/12/21 14:29:37;;;;;;;31.55;13.40;;;;;;;;;;4973955;28;20101;-65
2022/12/21 14:32:10;;;;;;;33.95;13.57;;;;;;;;;;4973271;28;20050;-64
2022/12/21 14:35:03;;;;;;;29.15;12.68;;;;;;;;;;5010939;28;20096;-65
2022/12/21 14:37:29;;;;;;;30.33;13.38;;;;;;;;;;5006641;28;20042;-65
2022/12/21 14:40:18;;;;;;;28.45;13.35;;;;;;;;;;4995198;28;20073;-65
2022/12/21 14:42:54;;;;;;;24.92;12.50;;;;;;;;;;4995280;28;20033;-66
2022/12/21 14:45:24;;;;;;;24.10;11.70;;;;;;;;;;4994877;28;20080;-64
2022/12/21 14:47:50;;;;;;;23.60;11.75;;;;;;;;;;4994729;28;20030;-64
2022/12/21 14:50:18;;;;;;;28.02;13.02;;;;;;;;;;4994982;28;20110;-64
2022/12/21 14:53:12;;;;;;;24.88;12.20;;;;;;;;;;4994987;28;20381;-66
2022/12/21 14:55:41;;;;;;;24.35;11.02;;;;;;;;;;4994929;28;20030;-65
2022/12/21 14:58:14;;;;;;;22.73;11.95;;;;;;;;;;4994690;28;20113;-66
2022/12/21 15:01:08;;;;;;;24.90;12.10;;;;;;;;;;4994749;28;20500;-65